sensor_id;sensor_type;location;lat;lon;timestamp;temperature;humidity
63051;SHT30;49136;47.416;19.402;2023-12-14T00:00:07;4.00;99.99
63051;SHT30;49136;47.416;19.402;2023-12-14T00:02:33;4.00;99.99
63051;SHT30;49136;47.416;19.402;2023-12-14T00:04:59;3.97;99.99
63051;SHT30;49136;47.416;19.402;2023-12-14T00:07:24;3.97;99.99
63051;SHT30;49136;47.416;19.402;2023-12-14T00:09:49;3.96;99.99
63051;SHT30;49136;47.416;19.402;2023-12-14T00:12:15;3.94;99.99
63051;SHT30;49136;47.416;19.402;2023-12-14T00:14:40;3.94;99.99
63051;SHT30;49136;47.416;19.402;2023-12-14T00:17:06;3.96;99.99
63051;SHT30;49136;47.416;19.402;2023-12-14T00:19:31;3.94;99.99
63051;SHT30;49136;47.416;19.402;2023-12-14T00:21:57;3.93;99.99
63051;SHT30;49136;47.416;19.402;2023-12-14T00:24:22;3.92;99.99
63051;SHT30;49136;47.416;19.402;2023-12-14T00:26:47;3.89;99.99
63051;SHT30;49136;47.416;19.402;2023-12-14T00:29:13;3.92;99.99
63051;SHT30;49136;47.416;19.402;2023-12-14T00:31:38;3.92;99.99
63051;SHT30;49136;47.416;19.402;2023-12-14T00:34:04;3.90;99.99
63051;SHT30;49136;47.416;19.402;2023-12-14T00:36:29;3.86;99.99
63051;SHT30;49136;47.416;19.402;2023-12-14T00:38:55;3.83;99.99
63051;SHT30;49136;47.416;19.402;2023-12-14T00:41:23;3.81;99.99
63051;SHT30;49136;47.416;19.402;2023-12-14T00:43:48;3.79;99.99
63051;SHT30;49136;47.416;19.402;2023-12-14T00:46:14;3.75;99.99
63051;SHT30;49136;47.416;19.402;2023-12-14T00:48:39;3.74;99.99
63051;SHT30;49136;47.416;19.402;2023-12-14T00:51:05;3.71;99.99
63051;SHT30;49136;47.416;19.402;2023-12-14T00:53:30;3.71;99.99
63051;SHT30;49136;47.416;19.402;2023-12-14T00:55:55;3.69;99.99
63051;SHT30;49136;47.416;19.402;2023-12-14T00:58:21;3.71;99.99
63051;SHT30;49136;47.416;19.402;2023-12-14T01:00:46;3.69;99.99
63051;SHT30;49136;47.416;19.402;2023-12-14T01:03:12;3.68;99.99
63051;SHT30;49136;47.416;19.402;2023-12-14T01:05:37;3.64;99.99
63051;SHT30;49136;47.416;19.402;2023-12-14T01:08:03;3.64;99.99
63051;SHT30;49136;47.416;19.402;2023-12-14T01:10:28;3.64;99.99
63051;SHT30;49136;47.416;19.402;2023-12-14T01:12:54;3.68;99.99
63051;SHT30;49136;47.416;19.402;2023-12-14T01:15:19;3.78;99.99
63051;SHT30;49136;47.416;19.402;2023-12-14T01:17:45;3.83;99.99
63051;SHT30;49136;47.416;19.402;2023-12-14T01:20:10;3.81;99.99
63051;SHT30;49136;47.416;19.402;2023-12-14T01:22:36;3.82;99.99
63051;SHT30;49136;47.416;19.402;2023-12-14T01:25:02;3.81;99.99
63051;SHT30;49136;47.416;19.402;2023-12-14T01:27:27;3.81;99.99
63051;SHT30;49136;47.416;19.402;2023-12-14T01:29:53;3.82;99.99
63051;SHT30;49136;47.416;19.402;2023-12-14T01:32:18;3.81;99.99
63051;SHT30;49136;47.416;19.402;2023-12-14T01:34:44;3.79;99.99
63051;SHT30;49136;47.416;19.402;2023-12-14T01:37:10;3.72;99.99
63051;SHT30;49136;47.416;19.402;2023-12-14T01:39:35;3.68;99.99
63051;SHT30;49136;47.416;19.402;2023-12-14T01:42:01;3.68;99.99
63051;SHT30;49136;47.416;19.402;2023-12-14T01:44:26;3.62;99.99
63051;SHT30;49136;47.416;19.402;2023-12-14T01:46:51;3.54;99.99
63051;SHT30;49136;47.416;19.402;2023-12-14T01:49:17;3.50;99.99
63051;SHT30;49136;47.416;19.402;2023-12-14T01:51:42;3.51;99.99
63051;SHT30;49136;47.416;19.402;2023-12-14T01:54:08;3.44;99.99
63051;SHT30;49136;47.416;19.402;2023-12-14T01:56:33;3.35;99.99
63051;SHT30;49136;47.416;19.402;2023-12-14T01:58:58;3.34;99.99
63051;SHT30;49136;47.416;19.402;2023-12-14T02:01:45;3.33;99.99
63051;SHT30;49136;47.416;19.402;2023-12-14T02:04:11;3.30;99.99
63051;SHT30;49136;47.416;19.402;2023-12-14T02:06:37;3.33;99.99
63051;SHT30;49136;47.416;19.402;2023-12-14T02:09:03;3.33;99.99
63051;SHT30;49136;47.416;19.402;2023-12-14T02:11:29;3.31;99.99
63051;SHT30;49136;47.416;19.402;2023-12-14T02:13:55;3.27;99.99
63051;SHT30;49136;47.416;19.402;2023-12-14T02:16:20;3.24;99.99
63051;SHT30;49136;47.416;19.402;2023-12-14T02:18:46;3.22;99.99
63051;SHT30;49136;47.416;19.402;2023-12-14T02:21:11;3.27;99.99
63051;SHT30;49136;47.416;19.402;2023-12-14T02:23:44;3.33;99.99
63051;SHT30;49136;47.416;19.402;2023-12-14T02:26:09;3.35;99.99
63051;SHT30;49136;47.416;19.402;2023-12-14T02:28:35;3.33;99.99
63051;SHT30;49136;47.416;19.402;2023-12-14T02:31:00;3.28;99.99
63051;SHT30;49136;47.416;19.402;2023-12-14T02:33:28;3.26;99.99
63051;SHT30;49136;47.416;19.402;2023-12-14T02:35:54;3.20;99.99
63051;SHT30;49136;47.416;19.402;2023-12-14T02:38:19;3.23;99.99
63051;SHT30;49136;47.416;19.402;2023-12-14T02:40:45;3.22;99.99
63051;SHT30;49136;47.416;19.402;2023-12-14T02:43:10;3.28;99.99
63051;SHT30;49136;47.416;19.402;2023-12-14T02:45:35;3.30;99.99
63051;SHT30;49136;47.416;19.402;2023-12-14T02:48:01;3.35;99.99
63051;SHT30;49136;47.416;19.402;2023-12-14T02:50:26;3.45;99.99
63051;SHT30;49136;47.416;19.402;2023-12-14T02:52:52;3.52;99.99
63051;SHT30;49136;47.416;19.402;2023-12-14T02:55:17;3.51;99.99
63051;SHT30;49136;47.416;19.402;2023-12-14T02:57:42;3.51;99.99
63051;SHT30;49136;47.416;19.402;2023-12-14T03:00:08;3.51;99.99
63051;SHT30;49136;47.416;19.402;2023-12-14T03:02:34;3.51;99.99
63051;SHT30;49136;47.416;19.402;2023-12-14T03:04:59;3.48;99.99
63051;SHT30;49136;47.416;19.402;2023-12-14T03:07:25;3.48;99.99
63051;SHT30;49136;47.416;19.402;2023-12-14T03:09:50;3.41;99.99
63051;SHT30;49136;47.416;19.402;2023-12-14T03:12:15;3.33;99.99
63051;SHT30;49136;47.416;19.402;2023-12-14T03:14:41;3.31;99.99
63051;SHT30;49136;47.416;19.402;2023-12-14T03:17:07;3.24;99.99
63051;SHT30;49136;47.416;19.402;2023-12-14T03:19:41;3.28;99.99
63051;SHT30;49136;47.416;19.402;2023-12-14T03:22:07;3.20;99.99
63051;SHT30;49136;47.416;19.402;2023-12-14T03:24:32;3.14;99.99
63051;SHT30;49136;47.416;19.402;2023-12-14T03:26:58;3.06;99.99
63051;SHT30;49136;47.416;19.402;2023-12-14T03:29:23;3.09;99.99
63051;SHT30;49136;47.416;19.402;2023-12-14T03:31:49;3.13;99.99
63051;SHT30;49136;47.416;19.402;2023-12-14T03:34:14;3.06;99.99
63051;SHT30;49136;47.416;19.402;2023-12-14T03:36:39;3.00;99.99
63051;SHT30;49136;47.416;19.402;2023-12-14T03:39:05;2.95;99.99
63051;SHT30;49136;47.416;19.402;2023-12-14T03:41:31;2.96;99.99
63051;SHT30;49136;47.416;19.402;2023-12-14T03:43:57;2.93;99.99
63051;SHT30;49136;47.416;19.402;2023-12-14T03:46:23;2.92;99.99
63051;SHT30;49136;47.416;19.402;2023-12-14T03:48:48;2.95;99.99
63051;SHT30;49136;47.416;19.402;2023-12-14T03:51:18;2.91;99.99
63051;SHT30;49136;47.416;19.402;2023-12-14T03:53:43;2.87;99.99
63051;SHT30;49136;47.416;19.402;2023-12-14T03:56:09;2.89;99.99
63051;SHT30;49136;47.416;19.402;2023-12-14T03:58:34;2.95;99.99
63051;SHT30;49136;47.416;19.402;2023-12-14T04:01:01;3.00;99.99
63051;SHT30;49136;47.416;19.402;2023-12-14T04:03:27;3.12;99.99
63051;SHT30;49136;47.416;19.402;2023-12-14T04:05:52;3.12;99.99
63051;SHT30;49136;47.416;19.402;2023-12-14T04:08:18;3.20;99.99
63051;SHT30;49136;47.416;19.402;2023-12-14T04:10:43;3.24;99.99
63051;SHT30;49136;47.416;19.402;2023-12-14T04:13:09;3.27;99.99
63051;SHT30;49136;47.416;19.402;2023-12-14T04:15:35;3.28;99.99
63051;SHT30;49136;47.416;19.402;2023-12-14T04:18:00;3.34;99.99
63051;SHT30;49136;47.416;19.402;2023-12-14T04:20:26;3.34;99.99
63051;SHT30;49136;47.416;19.402;2023-12-14T04:22:51;3.33;99.99
63051;SHT30;49136;47.416;19.402;2023-12-14T04:25:16;3.27;99.99
63051;SHT30;49136;47.416;19.402;2023-12-14T04:27:42;3.27;99.99
63051;SHT30;49136;47.416;19.402;2023-12-14T04:30:07;3.24;99.99
63051;SHT30;49136;47.416;19.402;2023-12-14T04:32:38;3.22;99.99
63051;SHT30;49136;47.416;19.402;2023-12-14T04:35:04;3.22;99.99
63051;SHT30;49136;47.416;19.402;2023-12-14T04:37:30;3.19;99.99
63051;SHT30;49136;47.416;19.402;2023-12-14T04:39:57;3.17;99.99
63051;SHT30;49136;47.416;19.402;2023-12-14T04:42:22;3.17;99.99
63051;SHT30;49136;47.416;19.402;2023-12-14T04:44:48;3.16;99.99
63051;SHT30;49136;47.416;19.402;2023-12-14T04:47:13;3.16;99.99
63051;SHT30;49136;47.416;19.402;2023-12-14T04:49:39;3.22;99.99
63051;SHT30;49136;47.416;19.402;2023-12-14T04:52:04;3.19;99.99
63051;SHT30;49136;47.416;19.402;2023-12-14T04:54:30;3.22;99.99
63051;SHT30;49136;47.416;19.402;2023-12-14T04:56:56;3.24;99.99
63051;SHT30;49136;47.416;19.402;2023-12-14T04:59:21;3.20;99.99
63051;SHT30;49136;47.416;19.402;2023-12-14T05:01:46;3.23;99.99
63051;SHT30;49136;47.416;19.402;2023-12-14T05:04:12;3.40;99.99
63051;SHT30;49136;47.416;19.402;2023-12-14T05:06:38;3.38;99.99
63051;SHT30;49136;47.416;19.402;2023-12-14T05:09:03;3.35;99.99
63051;SHT30;49136;47.416;19.402;2023-12-14T05:11:29;3.37;99.99
63051;SHT30;49136;47.416;19.402;2023-12-14T05:13:55;3.35;99.99
63051;SHT30;49136;47.416;19.402;2023-12-14T05:16:20;3.37;99.99
63051;SHT30;49136;47.416;19.402;2023-12-14T05:18:46;3.38;99.99
63051;SHT30;49136;47.416;19.402;2023-12-14T05:21:16;3.37;99.99
63051;SHT30;49136;47.416;19.402;2023-12-14T05:23:42;3.34;99.99
63051;SHT30;49136;47.416;19.402;2023-12-14T05:26:08;3.38;99.99
63051;SHT30;49136;47.416;19.402;2023-12-14T05:28:34;3.40;99.99
63051;SHT30;49136;47.416;19.402;2023-12-14T05:31:02;3.45;99.99
63051;SHT30;49136;47.416;19.402;2023-12-14T05:33:28;3.58;99.99
63051;SHT30;49136;47.416;19.402;2023-12-14T05:35:53;3.69;99.99
63051;SHT30;49136;47.416;19.402;2023-12-14T05:38:19;3.69;99.99
63051;SHT30;49136;47.416;19.402;2023-12-14T05:40:44;3.64;99.99
63051;SHT30;49136;47.416;19.402;2023-12-14T05:43:10;3.65;99.99
63051;SHT30;49136;47.416;19.402;2023-12-14T05:45:43;3.65;99.99
63051;SHT30;49136;47.416;19.402;2023-12-14T05:48:08;3.65;99.99
63051;SHT30;49136;47.416;19.402;2023-12-14T05:50:34;3.65;99.99
63051;SHT30;49136;47.416;19.402;2023-12-14T05:53:02;3.68;99.99
63051;SHT30;49136;47.416;19.402;2023-12-14T05:55:28;3.68;99.99
63051;SHT30;49136;47.416;19.402;2023-12-14T05:57:55;3.71;99.99
63051;SHT30;49136;47.416;19.402;2023-12-14T06:00:22;3.72;99.99
63051;SHT30;49136;47.416;19.402;2023-12-14T06:02:47;3.75;99.99
63051;SHT30;49136;47.416;19.402;2023-12-14T06:05:13;3.72;99.99
63051;SHT30;49136;47.416;19.402;2023-12-14T06:07:38;3.74;99.99
63051;SHT30;49136;47.416;19.402;2023-12-14T06:10:04;3.74;99.99
63051;SHT30;49136;47.416;19.402;2023-12-14T06:12:32;3.79;99.99
63051;SHT30;49136;47.416;19.402;2023-12-14T06:14:59;3.74;99.99
63051;SHT30;49136;47.416;19.402;2023-12-14T06:17:24;3.78;99.99
63051;SHT30;49136;47.416;19.402;2023-12-14T06:19:50;3.82;99.99
63051;SHT30;49136;47.416;19.402;2023-12-14T06:22:16;3.78;99.99
63051;SHT30;49136;47.416;19.402;2023-12-14T06:24:59;3.75;99.99
63051;SHT30;49136;47.416;19.402;2023-12-14T06:27:39;3.74;99.99
63051;SHT30;49136;47.416;19.402;2023-12-14T06:30:14;3.75;99.99
63051;SHT30;49136;47.416;19.402;2023-12-14T06:32:44;3.79;99.99
63051;SHT30;49136;47.416;19.402;2023-12-14T06:35:10;3.79;99.99
63051;SHT30;49136;47.416;19.402;2023-12-14T06:37:36;3.78;99.99
63051;SHT30;49136;47.416;19.402;2023-12-14T06:40:01;3.76;99.99
63051;SHT30;49136;47.416;19.402;2023-12-14T06:42:29;3.75;99.99
63051;SHT30;49136;47.416;19.402;2023-12-14T06:44:58;3.74;99.99
63051;SHT30;49136;47.416;19.402;2023-12-14T06:47:30;3.75;99.99
63051;SHT30;49136;47.416;19.402;2023-12-14T06:50:07;3.75;99.99
63051;SHT30;49136;47.416;19.402;2023-12-14T06:52:42;3.74;99.99
63051;SHT30;49136;47.416;19.402;2023-12-14T06:55:30;3.74;99.99
63051;SHT30;49136;47.416;19.402;2023-12-14T06:57:58;3.74;99.99
63051;SHT30;49136;47.416;19.402;2023-12-14T07:00:53;3.75;99.99
63051;SHT30;49136;47.416;19.402;2023-12-14T07:03:26;3.72;99.99
63051;SHT30;49136;47.416;19.402;2023-12-14T07:05:52;3.74;99.99
63051;SHT30;49136;47.416;19.402;2023-12-14T07:08:21;3.76;99.99
63051;SHT30;49136;47.416;19.402;2023-12-14T07:10:50;3.78;99.99
63051;SHT30;49136;47.416;19.402;2023-12-14T07:13:15;3.81;99.99
63051;SHT30;49136;47.416;19.402;2023-12-14T07:15:41;3.79;99.99
63051;SHT30;49136;47.416;19.402;2023-12-14T07:18:10;3.81;99.99
63051;SHT30;49136;47.416;19.402;2023-12-14T07:20:41;3.81;99.99
63051;SHT30;49136;47.416;19.402;2023-12-14T07:23:06;3.82;99.99
63051;SHT30;49136;47.416;19.402;2023-12-14T07:25:32;3.85;99.99
63051;SHT30;49136;47.416;19.402;2023-12-14T07:28:02;3.86;99.99
63051;SHT30;49136;47.416;19.402;2023-12-14T07:30:27;3.92;99.99
63051;SHT30;49136;47.416;19.402;2023-12-14T07:32:53;3.94;99.99
63051;SHT30;49136;47.416;19.402;2023-12-14T07:35:21;4.01;99.99
63051;SHT30;49136;47.416;19.402;2023-12-14T07:37:49;4.06;99.99
63051;SHT30;49136;47.416;19.402;2023-12-14T07:40:14;4.10;99.99
63051;SHT30;49136;47.416;19.402;2023-12-14T07:42:40;4.17;99.99
63051;SHT30;49136;47.416;19.402;2023-12-14T07:45:09;4.18;99.99
63051;SHT30;49136;47.416;19.402;2023-12-14T07:47:35;4.27;99.99
63051;SHT30;49136;47.416;19.402;2023-12-14T07:50:02;4.33;99.99
63051;SHT30;49136;47.416;19.402;2023-12-14T07:52:30;4.34;99.99
63051;SHT30;49136;47.416;19.402;2023-12-14T07:55:24;4.42;99.99
63051;SHT30;49136;47.416;19.402;2023-12-14T08:00:53;4.52;99.99
63051;SHT30;49136;47.416;19.402;2023-12-14T08:03:31;4.55;99.99
63051;SHT30;49136;47.416;19.402;2023-12-14T08:06:12;4.65;99.99
63051;SHT30;49136;47.416;19.402;2023-12-14T08:09:00;4.72;99.99
63051;SHT30;49136;47.416;19.402;2023-12-14T08:11:31;4.75;99.99
63051;SHT30;49136;47.416;19.402;2023-12-14T08:14:06;4.80;99.99
63051;SHT30;49136;47.416;19.402;2023-12-14T08:16:50;4.87;99.99
63051;SHT30;49136;47.416;19.402;2023-12-14T08:19:48;4.93;99.99
63051;SHT30;49136;47.416;19.402;2023-12-14T08:22:42;4.94;99.99
63051;SHT30;49136;47.416;19.402;2023-12-14T08:25:39;4.98;99.99
63051;SHT30;49136;47.416;19.402;2023-12-14T08:28:26;5.04;99.99
63051;SHT30;49136;47.416;19.402;2023-12-14T08:34:23;5.07;99.99
63051;SHT30;49136;47.416;19.402;2023-12-14T08:37:00;5.15;99.99
63051;SHT30;49136;47.416;19.402;2023-12-14T08:39:33;5.32;99.99
63051;SHT30;49136;47.416;19.402;2023-12-14T08:42:10;5.39;99.99
63051;SHT30;49136;47.416;19.402;2023-12-14T08:44:55;5.47;99.99
63051;SHT30;49136;47.416;19.402;2023-12-14T08:47:59;5.52;99.99
63051;SHT30;49136;47.416;19.402;2023-12-14T08:50:39;5.60;99.99
63051;SHT30;49136;47.416;19.402;2023-12-14T08:53:25;5.69;99.99
63051;SHT30;49136;47.416;19.402;2023-12-14T08:55:52;5.73;99.99
63051;SHT30;49136;47.416;19.402;2023-12-14T08:58:17;5.78;99.99
63051;SHT30;49136;47.416;19.402;2023-12-14T09:00:45;5.83;99.99
63051;SHT30;49136;47.416;19.402;2023-12-14T09:03:14;5.78;99.99
63051;SHT30;49136;47.416;19.402;2023-12-14T09:05:48;5.81;99.99
63051;SHT30;49136;47.416;19.402;2023-12-14T09:08:17;5.84;99.99
63051;SHT30;49136;47.416;19.402;2023-12-14T09:10:42;5.95;99.99
63051;SHT30;49136;47.416;19.402;2023-12-14T09:13:08;5.97;99.99
63051;SHT30;49136;47.416;19.402;2023-12-14T09:15:34;5.99;99.99
63051;SHT30;49136;47.416;19.402;2023-12-14T09:17:59;6.06;99.99
63051;SHT30;49136;47.416;19.402;2023-12-14T09:20:25;6.02;99.99
63051;SHT30;49136;47.416;19.402;2023-12-14T09:23:00;6.15;99.99
63051;SHT30;49136;47.416;19.402;2023-12-14T09:25:40;6.23;99.99
63051;SHT30;49136;47.416;19.402;2023-12-14T09:28:25;6.26;99.99
63051;SHT30;49136;47.416;19.402;2023-12-14T09:30:54;6.43;99.99
63051;SHT30;49136;47.416;19.402;2023-12-14T09:33:25;6.32;99.99
63051;SHT30;49136;47.416;19.402;2023-12-14T09:36:11;6.47;99.99
63051;SHT30;49136;47.416;19.402;2023-12-14T09:38:45;6.21;99.99
63051;SHT30;49136;47.416;19.402;2023-12-14T09:41:29;6.40;99.99
63051;SHT30;49136;47.416;19.402;2023-12-14T09:44:13;6.61;99.99
63051;SHT30;49136;47.416;19.402;2023-12-14T09:46:54;6.68;99.99
63051;SHT30;49136;47.416;19.402;2023-12-14T09:49:38;6.81;99.99
63051;SHT30;49136;47.416;19.402;2023-12-14T09:52:20;6.91;99.99
63051;SHT30;49136;47.416;19.402;2023-12-14T09:54:49;6.75;99.99
63051;SHT30;49136;47.416;19.402;2023-12-14T09:57:31;6.96;99.99
63051;SHT30;49136;47.416;19.402;2023-12-14T09:59:58;7.03;99.99
63051;SHT30;49136;47.416;19.402;2023-12-14T10:02:46;7.15;99.99
63051;SHT30;49136;47.416;19.402;2023-12-14T10:05:20;7.28;99.99
63051;SHT30;49136;47.416;19.402;2023-12-14T10:08:07;7.24;99.99
63051;SHT30;49136;47.416;19.402;2023-12-14T10:10:37;7.28;99.99
63051;SHT30;49136;47.416;19.402;2023-12-14T10:13:08;7.28;99.99
63051;SHT30;49136;47.416;19.402;2023-12-14T10:15:47;7.26;99.99
63051;SHT30;49136;47.416;19.402;2023-12-14T10:18:24;7.30;99.99
63051;SHT30;49136;47.416;19.402;2023-12-14T10:20:56;7.24;99.99
63051;SHT30;49136;47.416;19.402;2023-12-14T10:23:36;7.31;99.99
63051;SHT30;49136;47.416;19.402;2023-12-14T10:26:24;7.09;99.99
63051;SHT30;49136;47.416;19.402;2023-12-14T10:28:55;7.10;99.99
63051;SHT30;49136;47.416;19.402;2023-12-14T10:31:21;7.24;99.99
63051;SHT30;49136;47.416;19.402;2023-12-14T10:33:49;7.37;99.99
63051;SHT30;49136;47.416;19.402;2023-12-14T10:36:19;7.34;99.99
63051;SHT30;49136;47.416;19.402;2023-12-14T10:38:52;7.38;99.99
63051;SHT30;49136;47.416;19.402;2023-12-14T10:41:20;7.52;99.99
63051;SHT30;49136;47.416;19.402;2023-12-14T10:43:48;7.59;99.99
63051;SHT30;49136;47.416;19.402;2023-12-14T10:46:16;7.75;99.99
63051;SHT30;49136;47.416;19.402;2023-12-14T10:48:50;7.81;99.99
63051;SHT30;49136;47.416;19.402;2023-12-14T10:51:18;7.61;99.99
63051;SHT30;49136;47.416;19.402;2023-12-14T10:53:45;7.61;99.99
63051;SHT30;49136;47.416;19.402;2023-12-14T10:56:20;7.55;99.99
63051;SHT30;49136;47.416;19.402;2023-12-14T10:58:54;7.71;99.99
63051;SHT30;49136;47.416;19.402;2023-12-14T11:01:25;7.90;99.99
63051;SHT30;49136;47.416;19.402;2023-12-14T11:03:58;8.06;99.99
63051;SHT30;49136;47.416;19.402;2023-12-14T11:06:33;8.16;99.99
63051;SHT30;49136;47.416;19.402;2023-12-14T11:09:08;8.24;99.29
63051;SHT30;49136;47.416;19.402;2023-12-14T11:12:12;8.06;97.93
63051;SHT30;49136;47.416;19.402;2023-12-14T11:14:52;8.06;98.25
63051;SHT30;49136;47.416;19.402;2023-12-14T11:18:30;8.41;99.33
63051;SHT30;49136;47.416;19.402;2023-12-14T11:21:02;8.14;97.00
63051;SHT30;49136;47.416;19.402;2023-12-14T11:23:35;8.42;98.32
63051;SHT30;49136;47.416;19.402;2023-12-14T11:26:08;8.63;98.97
63051;SHT30;49136;47.416;19.402;2023-12-14T11:28:49;8.70;98.93
63051;SHT30;49136;47.416;19.402;2023-12-14T11:31:18;8.65;98.01
63051;SHT30;49136;47.416;19.402;2023-12-14T11:33:51;8.66;96.90
63051;SHT30;49136;47.416;19.402;2023-12-14T11:36:20;8.73;97.97
63051;SHT30;49136;47.416;19.402;2023-12-14T11:38:50;8.72;96.00
63051;SHT30;49136;47.416;19.402;2023-12-14T11:41:27;9.00;97.73
63051;SHT30;49136;47.416;19.402;2023-12-14T11:44:00;8.84;96.05
63051;SHT30;49136;47.416;19.402;2023-12-14T11:46:35;8.56;95.93
63051;SHT30;49136;47.416;19.402;2023-12-14T11:49:02;8.52;96.20
63051;SHT30;49136;47.416;19.402;2023-12-14T11:51:34;8.48;96.82
63051;SHT30;49136;47.416;19.402;2023-12-14T11:54:03;8.54;97.70
63051;SHT30;49136;47.416;19.402;2023-12-14T11:56:35;8.51;98.45
63051;SHT30;49136;47.416;19.402;2023-12-14T11:59:06;8.44;97.44
63051;SHT30;49136;47.416;19.402;2023-12-14T12:01:36;8.24;96.86
63051;SHT30;49136;47.416;19.402;2023-12-14T12:04:09;8.17;96.75
63051;SHT30;49136;47.416;19.402;2023-12-14T12:06:44;7.99;96.55
63051;SHT30;49136;47.416;19.402;2023-12-14T12:09:41;7.93;97.48
63051;SHT30;49136;47.416;19.402;2023-12-14T12:12:10;7.89;97.07
63051;SHT30;49136;47.416;19.402;2023-12-14T12:14:40;7.92;97.66
63051;SHT30;49136;47.416;19.402;2023-12-14T12:17:08;7.85;98.35
63051;SHT30;49136;47.416;19.402;2023-12-14T12:19:40;7.71;97.55
63051;SHT30;49136;47.416;19.402;2023-12-14T12:22:08;7.83;97.66
63051;SHT30;49136;47.416;19.402;2023-12-14T12:24:35;7.75;97.51
63051;SHT30;49136;47.416;19.402;2023-12-14T12:27:01;7.82;98.12
63051;SHT30;49136;47.416;19.402;2023-12-14T12:29:30;7.82;98.32
63051;SHT30;49136;47.416;19.402;2023-12-14T12:32:01;7.90;99.02
63051;SHT30;49136;47.416;19.402;2023-12-14T12:34:28;7.96;98.96
63051;SHT30;49136;47.416;19.402;2023-12-14T12:36:58;8.00;99.99
63051;SHT30;49136;47.416;19.402;2023-12-14T12:39:24;7.97;99.27
63051;SHT30;49136;47.416;19.402;2023-12-14T12:41:50;7.96;99.48
63051;SHT30;49136;47.416;19.402;2023-12-14T12:44:16;7.86;98.68
63051;SHT30;49136;47.416;19.402;2023-12-14T12:46:43;7.90;99.04
63051;SHT30;49136;47.416;19.402;2023-12-14T12:49:12;7.75;98.15
63051;SHT30;49136;47.416;19.402;2023-12-14T12:51:38;7.67;97.55
63051;SHT30;49136;47.416;19.402;2023-12-14T12:54:05;7.69;97.94
63051;SHT30;49136;47.416;19.402;2023-12-14T12:56:36;7.65;98.33
63051;SHT30;49136;47.416;19.402;2023-12-14T12:59:01;7.68;99.09
63051;SHT30;49136;47.416;19.402;2023-12-14T13:01:34;7.65;98.50
63051;SHT30;49136;47.416;19.402;2023-12-14T13:04:00;7.55;97.87
63051;SHT30;49136;47.416;19.402;2023-12-14T13:06:27;7.62;99.21
63051;SHT30;49136;47.416;19.402;2023-12-14T13:09:03;7.64;98.58
63051;SHT30;49136;47.416;19.402;2023-12-14T13:11:49;7.68;97.92
63051;SHT30;49136;47.416;19.402;2023-12-14T13:14:15;7.86;98.87
63051;SHT30;49136;47.416;19.402;2023-12-14T13:16:41;7.99;98.06
63051;SHT30;49136;47.416;19.402;2023-12-14T13:19:08;8.10;97.06
63051;SHT30;49136;47.416;19.402;2023-12-14T13:21:35;8.26;97.23
63051;SHT30;49136;47.416;19.402;2023-12-14T13:24:06;8.23;95.95
63051;SHT30;49136;47.416;19.402;2023-12-14T13:26:32;8.34;96.19
63051;SHT30;49136;47.416;19.402;2023-12-14T13:29:01;8.49;96.41
63051;SHT30;49136;47.416;19.402;2023-12-14T13:31:28;8.17;94.99
63051;SHT30;49136;47.416;19.402;2023-12-14T13:33:54;8.31;95.63
63051;SHT30;49136;47.416;19.402;2023-12-14T13:36:20;8.24;95.74
63051;SHT30;49136;47.416;19.402;2023-12-14T13:38:45;8.21;96.33
63051;SHT30;49136;47.416;19.402;2023-12-14T13:41:11;8.10;96.37
63051;SHT30;49136;47.416;19.402;2023-12-14T13:43:39;8.10;97.50
63051;SHT30;49136;47.416;19.402;2023-12-14T13:46:05;7.96;95.66
63051;SHT30;49136;47.416;19.402;2023-12-14T13:48:31;7.86;96.16
63051;SHT30;49136;47.416;19.402;2023-12-14T13:50:57;7.69;97.21
63051;SHT30;49136;47.416;19.402;2023-12-14T13:53:22;7.59;97.55
63051;SHT30;49136;47.416;19.402;2023-12-14T13:55:48;7.51;97.73
63051;SHT30;49136;47.416;19.402;2023-12-14T13:58:14;7.48;98.14
63051;SHT30;49136;47.416;19.402;2023-12-14T14:00:41;7.38;98.27
63051;SHT30;49136;47.416;19.402;2023-12-14T14:03:09;7.30;98.65
63051;SHT30;49136;47.416;19.402;2023-12-14T14:05:35;7.24;99.22
63051;SHT30;49136;47.416;19.402;2023-12-14T14:08:01;7.19;98.54
63051;SHT30;49136;47.416;19.402;2023-12-14T14:10:26;7.10;98.82
63051;SHT30;49136;47.416;19.402;2023-12-14T14:12:52;7.05;99.28
63051;SHT30;49136;47.416;19.402;2023-12-14T14:15:23;6.96;99.53
63051;SHT30;49136;47.416;19.402;2023-12-14T14:17:50;6.87;99.99
63051;SHT30;49136;47.416;19.402;2023-12-14T14:20:20;6.74;99.99
63051;SHT30;49136;47.416;19.402;2023-12-14T14:22:47;6.67;99.99
63051;SHT30;49136;47.416;19.402;2023-12-14T14:25:13;6.57;99.99
63051;SHT30;49136;47.416;19.402;2023-12-14T14:27:38;6.50;99.99
63051;SHT30;49136;47.416;19.402;2023-12-14T14:30:07;6.40;99.99
63051;SHT30;49136;47.416;19.402;2023-12-14T14:32:34;6.32;99.99
63051;SHT30;49136;47.416;19.402;2023-12-14T14:35:04;6.26;99.99
63051;SHT30;49136;47.416;19.402;2023-12-14T14:37:30;6.19;99.99
63051;SHT30;49136;47.416;19.402;2023-12-14T14:39:55;6.11;99.99
63051;SHT30;49136;47.416;19.402;2023-12-14T14:42:23;5.95;99.99
63051;SHT30;49136;47.416;19.402;2023-12-14T14:44:58;5.88;99.99
63051;SHT30;49136;47.416;19.402;2023-12-14T14:47:30;5.80;99.99
63051;SHT30;49136;47.416;19.402;2023-12-14T14:50:07;5.73;99.99
63051;SHT30;49136;47.416;19.402;2023-12-14T14:52:55;5.54;99.99
63051;SHT30;49136;47.416;19.402;2023-12-14T14:55:47;5.45;99.99
63051;SHT30;49136;47.416;19.402;2023-12-14T14:58:35;5.34;99.99
63051;SHT30;49136;47.416;19.402;2023-12-14T15:01:27;5.18;99.99
63051;SHT30;49136;47.416;19.402;2023-12-14T15:04:12;5.04;99.99
63051;SHT30;49136;47.416;19.402;2023-12-14T15:06:44;4.97;99.99
63051;SHT30;49136;47.416;19.402;2023-12-14T15:09:11;4.93;99.99
63051;SHT30;49136;47.416;19.402;2023-12-14T15:11:52;4.81;99.99
63051;SHT30;49136;47.416;19.402;2023-12-14T15:14:47;4.65;99.99
63051;SHT30;49136;47.416;19.402;2023-12-14T15:17:39;4.48;99.99
63051;SHT30;49136;47.416;19.402;2023-12-14T15:20:11;4.37;99.99
63051;SHT30;49136;47.416;19.402;2023-12-14T15:22:56;4.25;99.99
63051;SHT30;49136;47.416;19.402;2023-12-14T15:25:35;4.16;99.99
63051;SHT30;49136;47.416;19.402;2023-12-14T15:28:38;4.01;99.99
63051;SHT30;49136;47.416;19.402;2023-12-14T15:31:35;3.99;99.99
63051;SHT30;49136;47.416;19.402;2023-12-14T15:37:05;3.87;99.99
63051;SHT30;49136;47.416;19.402;2023-12-14T15:40:02;3.87;99.99
63051;SHT30;49136;47.416;19.402;2023-12-14T15:42:55;3.86;99.99
63051;SHT30;49136;47.416;19.402;2023-12-14T15:46:01;3.90;99.99
63051;SHT30;49136;47.416;19.402;2023-12-14T15:49:27;3.97;99.99
63051;SHT30;49136;47.416;19.402;2023-12-14T15:52:55;3.94;99.99
63051;SHT30;49136;47.416;19.402;2023-12-14T16:00:15;4.17;99.99
63051;SHT30;49136;47.416;19.402;2023-12-14T16:03:27;4.28;99.99
63051;SHT30;49136;47.416;19.402;2023-12-14T16:07:07;4.34;99.99